Time;durP1;ratioP1;P1;durP2;ratioP2;P2;SDS_P1;SDS_P2;PMS_P1;PMS_P2;Temp;Humidity;BMP_temperature;BMP_pressure;BME280_temperature;BME280_humidity;BME280_pressure;Samples;Min_cycle;Max_cycle;Signal;HPM_P1;HPM_P2
2022/09/08 00:01:59;;;;;;;;;;;15.20;99.90;;;;;;5049019;28;19921;-78
2022/09/08 00:04:25;;;;;;;;;;;15.10;99.90;;;;;;5036723;28;19967;-78
2022/09/08 00:06:51;;;;;;;;;;;15.00;99.90;;;;;;5045554;28;19912;-78
2022/09/08 00:09:16;;;;;;;;;;;15.20;99.90;;;;;;5048951;28;19923;-78
2022/09/08 00:11:42;;;;;;;;;;;15.20;99.90;;;;;;5044012;28;20493;-78
2022/09/08 00:14:08;;;;;;;;;;;15.20;99.90;;;;;;5050031;28;19912;-78
2022/09/08 00:16:37;;;;;;;;;;;15.20;99.90;;;;;;5049206;28;19920;-78
2022/09/08 00:19:03;;;;;;;;;;;15.10;99.90;;;;;;5033961;28;19920;-78
2022/09/08 00:21:28;;;;;;;;;;;15.20;99.90;;;;;;5055841;28;20292;-78
2022/09/08 00:23:54;;;;;;;;;;;15.10;99.90;;;;;;5045188;28;20038;-78
2022/09/08 00:26:20;;;;;;;;;;;15.00;99.90;;;;;;5049755;28;19909;-78
2022/09/08 00:28:46;;;;;;;;;;;15.10;99.90;;;;;;5044402;28;19916;-78
2022/09/08 00:31:13;;;;;;;;;;;15.20;99.90;;;;;;5046236;28;19936;-78
2022/09/08 00:33:38;;;;;;;;;;;15.10;99.90;;;;;;5049686;28;19909;-78
2022/09/08 00:36:04;;;;;;;;;;;15.10;99.90;;;;;;5051605;28;19954;-78
2022/09/08 00:38:30;;;;;;;;;;;15.10;99.90;;;;;;5045509;28;19912;-78
2022/09/08 00:40:56;;;;;;;;;;;15.00;99.90;;;;;;5036638;28;19928;-78
2022/09/08 00:43:30;;;;;;;;;;;15.00;99.90;;;;;;5045746;28;20429;-79
2022/09/08 00:45:58;;;;;;;;;;;14.90;99.90;;;;;;5048720;28;19915;-78
2022/09/08 00:48:24;;;;;;;;;;;15.00;99.90;;;;;;5044388;28;19924;-78
2022/09/08 00:50:50;;;;;;;;;;;14.90;99.90;;;;;;5045069;28;19938;-78
2022/09/08 00:53:17;;;;;;;;;;;14.90;99.90;;;;;;5048512;28;19916;-79
2022/09/08 00:55:43;;;;;;;;;;;15.10;99.90;;;;;;5049165;28;19913;-78
2022/09/08 00:58:09;;;;;;;;;;;15.10;99.90;;;;;;5039444;28;19913;-78
2022/09/08 01:00:35;;;;;;;;;;;15.00;99.90;;;;;;5040153;28;19928;-78
2022/09/08 01:03:00;;;;;;;;;;;15.00;99.90;;;;;;5049166;28;19967;-78
2022/09/08 01:05:28;;;;;;;;;;;15.00;99.90;;;;;;5021513;28;19913;-78
2022/09/08 01:13:46;;;;;;;;;;;15.30;99.90;;;;;;5044599;28;20379;-78
2022/09/08 01:16:12;;;;;;;;;;;15.20;99.90;;;;;;5043843;28;19917;-78
2022/09/08 01:18:38;;;;;;;;;;;15.10;99.90;;;;;;5047594;28;19924;-78
2022/09/08 01:21:26;;;;;;;;;;;15.10;99.90;;;;;;5034621;28;20023;-79
2022/09/08 01:24:11;;;;;;;;;;;15.10;99.90;;;;;;5044257;28;20673;-78
2022/09/08 01:26:37;;;;;;;;;;;15.00;99.90;;;;;;5043052;28;19913;-78
2022/09/08 01:29:05;;;;;;;;;;;15.00;99.90;;;;;;5048903;28;19939;-78
2022/09/08 01:31:31;;;;;;;;;;;15.10;99.90;;;;;;5046664;28;19920;-78
2022/09/08 01:33:58;;;;;;;;;;;15.20;99.90;;;;;;5046637;28;19917;-78
2022/09/08 01:36:24;;;;;;;;;;;15.10;99.90;;;;;;5044220;28;19915;-78
2022/09/08 01:38:49;;;;;;;;;;;15.10;99.90;;;;;;5054908;28;19908;-78
2022/09/08 01:41:15;;;;;;;;;;;15.10;99.90;;;;;;5031320;28;19948;-79
2022/09/08 01:43:41;;;;;;;;;;;15.10;99.90;;;;;;5049992;28;19917;-78
2022/09/08 01:46:06;;;;;;;;;;;15.10;99.90;;;;;;5053340;28;19913;-78
2022/09/08 01:48:32;;;;;;;;;;;15.30;99.90;;;;;;5062602;28;19929;-78
2022/09/08 01:51:04;;;;;;;;;;;15.20;99.90;;;;;;5037406;28;19951;-78
2022/09/08 01:53:29;;;;;;;;;;;15.10;99.90;;;;;;5041208;28;19924;-78
2022/09/08 01:55:55;;;;;;;;;;;15.10;99.90;;;;;;5047038;28;20479;-78
2022/09/08 01:58:21;;;;;;;;;;;15.10;99.90;;;;;;5046651;28;19947;-78
2022/09/08 02:00:46;;;;;;;;;;;15.20;99.90;;;;;;5040603;28;19920;-78
2022/09/08 02:03:12;;;;;;;;;;;15.10;99.90;;;;;;5035380;28;19916;-79
2022/09/08 02:05:41;;;;;;;;;;;15.10;99.90;;;;;;5049253;28;19921;-79
2022/09/08 02:08:07;;;;;;;;;;;15.20;99.90;;;;;;5044607;28;19962;-78
2022/09/08 02:10:33;;;;;;;;;;;15.10;99.90;;;;;;5048565;28;19912;-78
2022/09/08 02:12:58;;;;;;;;;;;15.10;99.90;;;;;;5050270;28;20385;-79
2022/09/08 02:15:24;;;;;;;;;;;15.10;99.90;;;;;;5052346;28;19974;-78
2022/09/08 02:17:50;;;;;;;;;;;15.10;99.90;;;;;;5050620;28;19956;-78
2022/09/08 02:20:15;;;;;;;;;;;15.20;99.90;;;;;;5050728;28;19992;-78
2022/09/08 02:22:41;;;;;;;;;;;15.20;99.90;;;;;;5052319;28;19913;-78
2022/09/08 02:25:07;;;;;;;;;;;15.10;99.90;;;;;;5038950;28;19992;-79
2022/09/08 02:27:32;;;;;;;;;;;15.10;99.90;;;;;;5049024;28;19920;-78
2022/09/08 02:29:58;;;;;;;;;;;15.00;99.90;;;;;;5044445;28;19913;-79
2022/09/08 02:32:24;;;;;;;;;;;15.00;99.90;;;;;;5051254;28;19924;-78
2022/09/08 02:34:49;;;;;;;;;;;15.10;99.90;;;;;;5048688;28;19917;-78
2022/09/08 02:37:15;;;;;;;;;;;15.00;99.90;;;;;;5056484;28;19913;-79
2022/09/08 02:39:40;;;;;;;;;;;15.00;99.90;;;;;;5041997;28;19916;-78
2022/09/08 02:42:06;;;;;;;;;;;15.00;99.90;;;;;;5041347;28;19909;-78
2022/09/08 02:44:32;;;;;;;;;;;14.90;99.90;;;;;;5050177;28;20029;-78
2022/09/08 02:46:57;;;;;;;;;;;14.90;99.90;;;;;;5046430;28;19916;-79
2022/09/08 02:49:23;;;;;;;;;;;14.90;99.90;;;;;;5047301;28;19920;-78
2022/09/08 02:51:49;;;;;;;;;;;14.80;99.90;;;;;;5050609;28;20402;-79
2022/09/08 02:54:15;;;;;;;;;;;14.80;99.90;;;;;;5048121;28;19920;-79
2022/09/08 02:56:40;;;;;;;;;;;14.80;99.90;;;;;;5039396;28;20300;-78
2022/09/08 02:59:06;;;;;;;;;;;14.70;99.90;;;;;;5048242;28;19916;-78
2022/09/08 03:01:31;;;;;;;;;;;14.80;99.90;;;;;;5050783;28;19972;-78
2022/09/08 03:03:57;;;;;;;;;;;14.70;99.90;;;;;;5021196;28;20341;-78
2022/09/08 03:06:23;;;;;;;;;;;14.70;99.90;;;;;;5040457;28;19948;-78
2022/09/08 03:08:49;;;;;;;;;;;14.80;99.90;;;;;;5046842;28;19928;-78
2022/09/08 03:11:16;;;;;;;;;;;14.70;99.90;;;;;;5039718;28;19924;-79
2022/09/08 03:13:42;;;;;;;;;;;14.70;99.90;;;;;;5047499;28;19908;-78
2022/09/08 03:16:07;;;;;;;;;;;14.80;99.90;;;;;;5046249;28;19923;-78
2022/09/08 03:18:33;;;;;;;;;;;14.70;99.90;;;;;;5045942;28;19948;-78
2022/09/08 03:21:06;;;;;;;;;;;14.70;99.90;;;;;;5047881;28;19928;-78
2022/09/08 03:23:33;;;;;;;;;;;14.60;99.90;;;;;;5046981;28;19915;-78
2022/09/08 03:26:18;;;;;;;;;;;14.60;99.90;;;;;;5050769;28;19916;-78
2022/09/08 03:28:44;;;;;;;;;;;14.60;99.90;;;;;;5036590;28;19917;-78
2022/09/08 03:31:11;;;;;;;;;;;14.60;99.90;;;;;;5050286;28;19916;-78
2022/09/08 03:33:37;;;;;;;;;;;14.60;99.90;;;;;;5051125;28;19917;-78
2022/09/08 03:36:04;;;;;;;;;;;14.50;99.90;;;;;;5039652;28;19919;-78
2022/09/08 03:38:29;;;;;;;;;;;14.50;99.90;;;;;;5058976;28;19913;-78
2022/09/08 03:40:55;;;;;;;;;;;14.50;99.90;;;;;;5038820;28;19927;-78
2022/09/08 03:43:20;;;;;;;;;;;14.50;99.90;;;;;;5051113;28;19909;-80
2022/09/08 03:45:46;;;;;;;;;;;14.50;99.90;;;;;;5044293;28;19909;-78
2022/09/08 03:48:12;;;;;;;;;;;14.50;99.90;;;;;;5047574;28;19927;-78
2022/09/08 03:50:38;;;;;;;;;;;14.50;99.90;;;;;;5040150;28;20526;-78
2022/09/08 03:53:03;;;;;;;;;;;14.50;99.90;;;;;;5046671;28;19921;-78
2022/09/08 03:55:29;;;;;;;;;;;14.50;99.90;;;;;;5046812;28;19948;-79
2022/09/08 03:57:54;;;;;;;;;;;14.50;99.90;;;;;;5049235;28;20352;-78
2022/09/08 04:00:20;;;;;;;;;;;14.50;99.90;;;;;;5040377;28;19913;-78
2022/09/08 04:02:46;;;;;;;;;;;14.50;99.90;;;;;;5034798;28;19920;-78
2022/09/08 04:05:11;;;;;;;;;;;14.60;99.90;;;;;;5038566;28;19944;-78
2022/09/08 04:07:38;;;;;;;;;;;14.60;99.90;;;;;;5049590;28;20764;-78
2022/09/08 04:10:05;;;;;;;;;;;14.60;99.90;;;;;;5043778;28;20428;-78
2022/09/08 04:12:31;;;;;;;;;;;14.60;99.90;;;;;;5039445;28;19909;-78
2022/09/08 04:14:56;;;;;;;;;;;14.50;99.90;;;;;;5049973;28;19916;-78
2022/09/08 04:17:22;;;;;;;;;;;14.60;99.90;;;;;;5033837;28;19959;-78
2022/09/08 04:19:52;;;;;;;;;;;14.60;99.90;;;;;;5044237;28;19921;-78
2022/09/08 04:22:18;;;;;;;;;;;14.60;99.90;;;;;;5047338;28;19931;-79
2022/09/08 04:24:43;;;;;;;;;;;14.60;99.90;;;;;;5026437;28;20377;-79
2022/09/08 04:27:09;;;;;;;;;;;14.70;99.90;;;;;;5039165;28;19913;-79
2022/09/08 04:29:35;;;;;;;;;;;14.70;99.90;;;;;;5035464;28;19917;-78
2022/09/08 04:32:00;;;;;;;;;;;14.70;99.90;;;;;;5046922;28;20374;-78
2022/09/08 04:34:26;;;;;;;;;;;14.70;99.90;;;;;;5036555;28;19913;-79
2022/09/08 04:36:51;;;;;;;;;;;14.70;99.90;;;;;;5046159;28;19909;-79
2022/09/08 04:39:18;;;;;;;;;;;14.70;99.90;;;;;;5038086;28;20559;-78
2022/09/08 04:41:43;;;;;;;;;;;14.70;99.90;;;;;;5045943;28;19924;-78
2022/09/08 04:44:09;;;;;;;;;;;14.70;99.90;;;;;;5046612;28;19913;-80
2022/09/08 04:46:36;;;;;;;;;;;14.70;99.90;;;;;;5045206;28;19913;-79
2022/09/08 04:49:02;;;;;;;;;;;14.70;99.90;;;;;;5040058;28;19952;-78
2022/09/08 04:51:28;;;;;;;;;;;14.70;99.90;;;;;;5035118;28;19917;-80
2022/09/08 04:53:55;;;;;;;;;;;14.70;99.90;;;;;;5051674;28;19909;-80
2022/09/08 04:56:22;;;;;;;;;;;14.80;99.90;;;;;;5043036;28;20376;-78
2022/09/08 04:58:48;;;;;;;;;;;14.70;99.90;;;;;;5044762;28;19951;-78
2022/09/08 05:01:19;;;;;;;;;;;14.80;99.90;;;;;;5038707;28;19917;-79
2022/09/08 05:03:44;;;;;;;;;;;14.70;99.90;;;;;;5030064;28;19909;-79
2022/09/08 05:06:14;;;;;;;;;;;14.80;99.90;;;;;;5037877;28;19919;-78
2022/09/08 05:08:41;;;;;;;;;;;14.80;99.90;;;;;;5046020;28;19913;-79
2022/09/08 05:11:07;;;;;;;;;;;14.80;99.90;;;;;;5046042;28;19913;-78
2022/09/08 05:13:33;;;;;;;;;;;14.80;99.90;;;;;;5034228;28;20352;-78
2022/09/08 05:16:01;;;;;;;;;;;14.80;99.90;;;;;;5041303;28;19915;-81
2022/09/08 05:18:27;;;;;;;;;;;14.80;99.90;;;;;;5038678;28;19912;-78
2022/09/08 05:20:53;;;;;;;;;;;14.80;99.90;;;;;;5032138;28;19916;-78
2022/09/08 05:23:19;;;;;;;;;;;14.80;99.90;;;;;;5033181;28;20380;-79
2022/09/08 05:25:44;;;;;;;;;;;14.80;99.90;;;;;;5029898;28;19940;-80
2022/09/08 05:28:10;;;;;;;;;;;14.80;99.90;;;;;;5047124;28;19960;-79
2022/09/08 05:30:38;;;;;;;;;;;14.80;99.90;;;;;;5041599;28;19920;-80
2022/09/08 05:33:04;;;;;;;;;;;14.80;99.90;;;;;;5033507;28;19966;-79
2022/09/08 05:35:29;;;;;;;;;;;14.80;99.90;;;;;;5041652;28;20007;-80
2022/09/08 05:37:55;;;;;;;;;;;14.80;99.90;;;;;;5049436;28;20305;-80
2022/09/08 05:40:20;;;;;;;;;;;14.70;99.90;;;;;;5042751;28;19923;-80
2022/09/08 05:42:46;;;;;;;;;;;14.80;99.90;;;;;;5048230;28;19920;-81
2022/09/08 05:45:11;;;;;;;;;;;14.80;99.90;;;;;;5041608;28;19916;-81
2022/09/08 05:47:37;;;;;;;;;;;14.70;99.90;;;;;;5043573;28;20439;-80
2022/09/08 05:50:03;;;;;;;;;;;14.70;99.90;;;;;;5035510;28;19919;-81
2022/09/08 05:52:31;;;;;;;;;;;14.80;99.90;;;;;;5046409;28;19916;-76
2022/09/08 05:54:56;;;;;;;;;;;14.80;99.90;;;;;;5039480;28;20390;-79
2022/09/08 05:57:22;;;;;;;;;;;14.80;99.90;;;;;;5048942;28;19952;-81
2022/09/08 05:59:47;;;;;;;;;;;14.70;99.90;;;;;;5051167;28;19928;-82
2022/09/08 06:02:13;;;;;;;;;;;14.70;99.90;;;;;;5051809;28;19919;-82
2022/09/08 06:04:38;;;;;;;;;;;14.70;99.90;;;;;;5052974;28;19912;-82
2022/09/08 06:07:04;;;;;;;;;;;14.70;99.90;;;;;;5048289;28;19948;-82
2022/09/08 06:09:29;;;;;;;;;;;14.70;99.90;;;;;;5059820;28;20291;-82
2022/09/08 06:11:55;;;;;;;;;;;14.70;99.90;;;;;;5047735;28;19916;-82
2022/09/08 06:14:20;;;;;;;;;;;14.60;99.90;;;;;;5042755;28;20399;-82
2022/09/08 06:16:46;;;;;;;;;;;14.70;99.90;;;;;;5051063;28;19925;-82
2022/09/08 06:19:11;;;;;;;;;;;14.80;99.90;;;;;;5044526;28;19959;-82
2022/09/08 06:21:37;;;;;;;;;;;14.80;99.90;;;;;;5038639;28;20430;-81
2022/09/08 06:24:04;;;;;;;;;;;14.80;99.90;;;;;;5045697;28;20383;-82
2022/09/08 06:26:41;;;;;;;;;;;14.80;99.90;;;;;;5048235;28;19923;-81
2022/09/08 06:29:06;;;;;;;;;;;14.80;99.90;;;;;;5045487;28;19920;-82
2022/09/08 06:31:34;;;;;;;;;;;14.90;99.90;;;;;;5051650;28;19928;-82
2022/09/08 06:34:02;;;;;;;;;;;14.80;99.90;;;;;;5019666;28;19940;-81
2022/09/08 06:36:51;;;;;;;;;;;14.80;99.90;;;;;;5037498;28;19928;-82
2022/09/08 06:39:23;;;;;;;;;;;14.90;99.90;;;;;;5038752;28;20431;-81
2022/09/08 06:41:50;;;;;;;;;;;14.80;99.90;;;;;;5049736;28;20450;-82
2022/09/08 06:44:22;;;;;;;;;;;14.80;99.90;;;;;;5045053;28;19920;-82
2022/09/08 06:46:48;;;;;;;;;;;14.80;99.90;;;;;;5037559;28;19921;-82
2022/09/08 06:49:14;;;;;;;;;;;14.80;99.90;;;;;;5046707;28;19916;-81
2022/09/08 06:51:42;;;;;;;;;;;14.70;99.90;;;;;;5043659;28;19962;-82
2022/09/08 06:54:25;;;;;;;;;;;14.60;99.90;;;;;;5041034;28;19956;-81
2022/09/08 06:56:54;;;;;;;;;;;14.60;99.90;;;;;;5040734;28;20539;-82
2022/09/08 06:59:49;;;;;;;;;;;14.70;99.90;;;;;;5042693;28;19913;-81
2022/09/08 07:02:30;;;;;;;;;;;14.70;99.90;;;;;;5027014;28;19913;-82
2022/09/08 07:05:14;;;;;;;;;;;14.70;99.90;;;;;;5044477;28;20098;-82
2022/09/08 07:07:45;;;;;;;;;;;14.70;99.90;;;;;;5042513;28;19917;-82
2022/09/08 07:10:29;;;;;;;;;;;14.60;99.90;;;;;;5046907;28;19908;-81
2022/09/08 07:13:02;;;;;;;;;;;14.70;99.90;;;;;;5038138;28;19967;-81
2022/09/08 07:15:28;;;;;;;;;;;14.70;99.90;;;;;;5036098;28;19917;-81
2022/09/08 07:17:59;;;;;;;;;;;14.70;99.90;;;;;;5033155;28;19920;-82
2022/09/08 07:20:26;;;;;;;;;;;14.60;99.90;;;;;;5045185;28;19913;-82
2022/09/08 07:22:57;;;;;;;;;;;14.60;99.90;;;;;;5041482;28;20009;-81
2022/09/08 07:25:27;;;;;;;;;;;14.70;99.90;;;;;;5046409;28;19909;-81
2022/09/08 07:28:01;;;;;;;;;;;14.60;99.90;;;;;;5048441;28;19912;-81
2022/09/08 07:30:26;;;;;;;;;;;14.80;99.90;;;;;;5046628;28;19924;-81
2022/09/08 07:32:55;;;;;;;;;;;14.80;99.90;;;;;;5047404;28;19919;-81
2022/09/08 07:35:25;;;;;;;;;;;14.80;99.90;;;;;;5039400;28;20003;-81
2022/09/08 07:37:53;;;;;;;;;;;14.80;99.90;;;;;;5036518;28;19912;-81
2022/09/08 07:40:20;;;;;;;;;;;14.90;99.90;;;;;;5045590;28;20291;-81
2022/09/08 07:43:08;;;;;;;;;;;14.90;99.90;;;;;;5043616;28;19920;-81
2022/09/08 07:45:37;;;;;;;;;;;15.00;99.90;;;;;;5040135;28;19924;-82
2022/09/08 07:48:12;;;;;;;;;;;14.80;99.90;;;;;;5045673;28;19969;-81
2022/09/08 07:50:54;;;;;;;;;;;14.80;99.90;;;;;;5037417;28;19956;-81
2022/09/08 07:53:19;;;;;;;;;;;14.90;99.90;;;;;;5047704;28;19908;-81
2022/09/08 07:55:45;;;;;;;;;;;15.00;99.90;;;;;;5047554;28;20272;-81
2022/09/08 07:58:13;;;;;;;;;;;15.10;99.90;;;;;;5060604;28;19916;-80
2022/09/08 08:01:05;;;;;;;;;;;15.20;99.90;;;;;;5068545;28;19940;-81
2022/09/08 08:03:34;;;;;;;;;;;15.30;99.90;;;;;;5042267;28;19974;-81
2022/09/08 08:06:06;;;;;;;;;;;15.10;99.90;;;;;;5039857;28;20105;-81
2022/09/08 08:08:50;;;;;;;;;;;15.00;99.90;;;;;;5046405;28;19928;-81
2022/09/08 08:11:36;;;;;;;;;;;14.90;99.90;;;;;;5043096;28;19912;-81
2022/09/08 08:14:11;;;;;;;;;;;14.80;99.90;;;;;;5034916;28;19952;-81
2022/09/08 08:16:44;;;;;;;;;;;14.80;99.90;;;;;;5041143;28;19960;-81
2022/09/08 08:19:21;;;;;;;;;;;14.70;99.90;;;;;;5042895;28;20418;-81
2022/09/08 08:21:53;;;;;;;;;;;14.60;99.90;;;;;;5042969;28;19912;-82
2022/09/08 08:24:37;;;;;;;;;;;14.60;99.90;;;;;;5035808;28;20394;-82
2022/09/08 08:27:13;;;;;;;;;;;14.70;99.90;;;;;;5044726;28;19975;-79
2022/09/08 08:29:39;;;;;;;;;;;15.10;99.90;;;;;;5045703;28;20218;-79
2022/09/08 08:32:14;;;;;;;;;;;15.40;99.90;;;;;;5037471;28;20171;-80
2022/09/08 08:34:42;;;;;;;;;;;15.50;99.90;;;;;;5045884;28;19917;-80
2022/09/08 08:37:12;;;;;;;;;;;15.40;99.90;;;;;;5043469;28;20386;-79
2022/09/08 08:39:38;;;;;;;;;;;15.50;99.90;;;;;;5045924;28;20007;-80
2022/09/08 08:42:10;;;;;;;;;;;15.40;99.90;;;;;;5039089;28;19913;-80
2022/09/08 08:44:38;;;;;;;;;;;15.40;99.90;;;;;;5044860;28;19916;-79
2022/09/08 08:47:30;;;;;;;;;;;15.80;99.90;;;;;;5046270;28;19999;-80
2022/09/08 08:50:08;;;;;;;;;;;15.80;99.90;;;;;;5007481;28;20003;-80
2022/09/08 08:52:40;;;;;;;;;;;15.80;99.90;;;;;;5047025;28;19912;-79
2022/09/08 08:55:21;;;;;;;;;;;16.10;99.90;;;;;;5034314;28;19982;-79
2022/09/08 08:57:55;;;;;;;;;;;16.30;99.90;;;;;;5036621;28;19917;-79
2022/09/08 09:00:22;;;;;;;;;;;16.30;99.90;;;;;;5041344;28;20236;-81
2022/09/08 09:03:06;;;;;;;;;;;16.30;99.90;;;;;;5042196;28;20165;-80
2022/09/08 09:05:58;;;;;;;;;;;16.30;99.90;;;;;;5042488;28;19959;-80
2022/09/08 09:08:35;;;;;;;;;;;16.30;99.90;;;;;;5029589;28;19996;-79
2022/09/08 09:11:12;;;;;;;;;;;16.10;99.90;;;;;;5045809;28;19992;-79
2022/09/08 09:13:38;;;;;;;;;;;16.30;99.90;;;;;;5044458;28;19916;-79
2022/09/08 09:16:09;;;;;;;;;;;16.40;99.90;;;;;;5038908;28;19919;-80
2022/09/08 09:18:54;;;;;;;;;;;16.10;99.90;;;;;;5033597;28;19905;-79
2022/09/08 09:21:38;;;;;;;;;;;16.10;99.90;;;;;;5037005;28;19919;-79
2022/09/08 09:24:03;;;;;;;;;;;16.10;99.90;;;;;;5042332;28;19909;-79
2022/09/08 09:26:31;;;;;;;;;;;16.00;99.90;;;;;;5044800;28;19931;-79
2022/09/08 09:29:12;;;;;;;;;;;16.10;99.90;;;;;;5043801;28;20016;-79
2022/09/08 09:32:01;;;;;;;;;;;16.60;99.90;;;;;;5039648;28;20283;-79
2022/09/08 09:34:45;;;;;;;;;;;16.30;99.90;;;;;;5043065;28;19913;-79
2022/09/08 09:37:16;;;;;;;;;;;16.40;99.90;;;;;;5045600;28;19956;-79
2022/09/08 09:39:42;;;;;;;;;;;16.80;99.90;;;;;;5036737;28;19920;-79
2022/09/08 09:42:20;;;;;;;;;;;17.30;99.90;;;;;;5040187;28;19923;-79
2022/09/08 09:44:45;;;;;;;;;;;17.50;99.90;;;;;;5041325;28;19979;-78
2022/09/08 09:47:19;;;;;;;;;;;17.30;99.90;;;;;;5033307;28;20003;-79
2022/09/08 09:49:58;;;;;;;;;;;17.10;99.90;;;;;;5043963;28;19955;-79
2022/09/08 09:52:42;;;;;;;;;;;17.40;99.90;;;;;;5055366;28;20004;-79
2022/09/08 09:55:26;;;;;;;;;;;16.90;99.90;;;;;;5045506;28;20426;-79
2022/09/08 09:58:07;;;;;;;;;;;17.10;99.90;;;;;;5048910;28;20444;-79
2022/09/08 10:00:51;;;;;;;;;;;18.00;99.90;;;;;;5041249;28;19917;-79
2022/09/08 10:03:29;;;;;;;;;;;18.10;99.90;;;;;;5036093;28;20391;-79
2022/09/08 10:06:03;;;;;;;;;;;17.90;99.90;;;;;;5041467;28;20005;-79
2022/09/08 10:08:47;;;;;;;;;;;18.20;99.90;;;;;;5043503;28;19924;-79
2022/09/08 10:11:19;;;;;;;;;;;18.80;99.90;;;;;;5036177;28;19970;-79
2022/09/08 10:13:54;;;;;;;;;;;18.20;99.90;;;;;;5044967;28;19978;-79
2022/09/08 10:16:34;;;;;;;;;;;18.70;99.90;;;;;;5029501;28;20438;-79
2022/09/08 10:19:13;;;;;;;;;;;18.60;99.90;;;;;;5044523;28;19940;-79
2022/09/08 10:21:57;;;;;;;;;;;18.80;99.90;;;;;;5033793;28;19913;-82
2022/09/08 10:24:42;;;;;;;;;;;19.00;99.90;;;;;;5031457;28;19913;-80
2022/09/08 10:27:26;;;;;;;;;;;19.30;99.90;;;;;;5036582;28;19913;-80
2022/09/08 10:29:58;;;;;;;;;;;18.80;99.90;;;;;;5043580;28;20046;-80
2022/09/08 10:32:26;;;;;;;;;;;19.10;99.90;;;;;;5032987;28;19913;-79
2022/09/08 10:35:03;;;;;;;;;;;19.20;99.90;;;;;;5049398;28;19975;-80
2022/09/08 10:37:47;;;;;;;;;;;19.00;99.90;;;;;;5046545;28;20237;-80
2022/09/08 10:40:22;;;;;;;;;;;18.80;99.90;;;;;;5037767;28;19981;-80
2022/09/08 10:42:52;;;;;;;;;;;19.10;99.90;;;;;;5051224;28;20322;-81
2022/09/08 10:45:37;;;;;;;;;;;19.20;99.90;;;;;;5040647;28;20384;-80
2022/09/08 10:48:18;;;;;;;;;;;19.20;99.90;;;;;;5035769;28;20706;-80
2022/09/08 10:50:49;;;;;;;;;;;19.50;99.90;;;;;;5036907;28;19913;-83
2022/09/08 10:53:15;;;;;;;;;;;20.30;93.60;;;;;;5034562;28;19912;-80
2022/09/08 10:55:55;;;;;;;;;;;20.60;96.30;;;;;;5034948;28;19909;-79
2022/09/08 10:58:39;;;;;;;;;;;21.20;92.60;;;;;;5039514;28;19978;-80
2022/09/08 11:01:08;;;;;;;;;;;22.70;77.30;;;;;;5050685;28;19941;-80
2022/09/08 11:03:43;;;;;;;;;;;23.00;75.10;;;;;;5060390;28;19927;-79
2022/09/08 11:06:32;;;;;;;;;;;22.30;72.10;;;;;;5037676;28;20371;-79
2022/09/08 11:09:27;;;;;;;;;;;22.40;72.30;;;;;;5037358;28;20509;-80
2022/09/08 11:12:01;;;;;;;;;;;23.10;73.60;;;;;;5030235;28;19943;-79
2022/09/08 11:14:41;;;;;;;;;;;23.30;65.20;;;;;;5041399;28;19916;-79
2022/09/08 11:17:21;;;;;;;;;;;23.40;63.70;;;;;;5042500;28;20055;-81
2022/09/08 11:19:49;;;;;;;;;;;24.00;60.70;;;;;;5047141;28;20384;-81
2022/09/08 11:22:28;;;;;;;;;;;24.60;58.00;;;;;;5047783;28;19913;-82
2022/09/08 11:25:02;;;;;;;;;;;24.20;55.00;;;;;;5043254;28;19936;-79
2022/09/08 11:27:34;;;;;;;;;;;23.40;58.50;;;;;;5037701;28;19943;-81
2022/09/08 11:30:10;;;;;;;;;;;23.10;59.50;;;;;;5041752;28;20391;-81
2022/09/08 11:32:40;;;;;;;;;;;23.50;60.70;;;;;;5040986;28;20058;-81
2022/09/08 11:35:15;;;;;;;;;;;24.20;57.40;;;;;;5041997;28;19912;-83
2022/09/08 11:37:48;;;;;;;;;;;24.30;53.10;;;;;;5043764;28;20075;-82
2022/09/08 11:40:32;;;;;;;;;;;24.70;53.70;;;;;;5030825;28;19964;-83
2022/09/08 11:43:17;;;;;;;;;;;24.30;52.40;;;;;;5047378;28;19962;-81
2022/09/08 11:45:42;;;;;;;;;;;23.90;52.40;;;;;;5049069;28;19923;-80
2022/09/08 11:48:14;;;;;;;;;;;25.20;55.70;;;;;;5042218;28;19925;-80
2022/09/08 11:50:58;;;;;;;;;;;24.00;52.70;;;;;;5045732;28;20360;-80
2022/09/08 11:53:28;;;;;;;;;;;23.80;54.50;;;;;;5030342;28;20292;-79
2022/09/08 11:56:12;;;;;;;;;;;23.80;53.50;;;;;;5042583;28;19962;-82
2022/09/08 11:58:46;;;;;;;;;;;23.60;51.90;;;;;;5043324;28;19936;-81
2022/09/08 12:01:15;;;;;;;;;;;24.20;52.00;;;;;;5043311;28;20009;-81
2022/09/08 12:03:59;;;;;;;;;;;24.60;50.10;;;;;;5037951;28;19909;-80
2022/09/08 12:06:34;;;;;;;;;;;25.40;52.30;;;;;;5044553;28;19962;-81
2022/09/08 12:09:02;;;;;;;;;;;25.60;48.50;;;;;;5032864;28;19923;-79
2022/09/08 12:11:40;;;;;;;;;;;25.00;46.50;;;;;;5035679;28;20067;-79
2022/09/08 12:14:07;;;;;;;;;;;24.80;46.00;;;;;;5040004;28;19920;-80
2022/09/08 12:16:44;;;;;;;;;;;25.00;50.80;;;;;;5042674;28;19916;-81
2022/09/08 12:19:11;;;;;;;;;;;25.00;47.30;;;;;;5041349;28;20183;-82
2022/09/08 12:21:40;;;;;;;;;;;24.80;44.00;;;;;;5033735;28;20552;-79
2022/09/08 12:24:05;;;;;;;;;;;24.50;47.00;;;;;;5031198;28;20509;-78
2022/09/08 12:26:52;;;;;;;;;;;24.60;49.40;;;;;;5040315;28;19920;-79
2022/09/08 12:29:37;;;;;;;;;;;25.30;50.50;;;;;;5032640;28;19916;-86
2022/09/08 12:32:20;;;;;;;;;;;25.40;47.20;;;;;;5036582;28;19924;-88
2022/09/08 12:35:12;;;;;;;;;;;25.40;45.60;;;;;;5040354;28;19916;-84
2022/09/08 12:37:38;;;;;;;;;;;25.60;45.50;;;;;;5029682;28;19963;-92
2022/09/08 12:40:10;;;;;;;;;;;25.20;43.70;;;;;;5038061;28;20003;-89
2022/09/08 12:42:59;;;;;;;;;;;26.50;44.40;;;;;;5033441;28;19909;-92
2022/09/08 12:45:24;;;;;;;;;;;26.80;42.50;;;;;;5032815;28;19909;-89
2022/09/08 12:47:59;;;;;;;;;;;27.00;41.60;;;;;;5040819;28;20739;-88
2022/09/08 12:50:30;;;;;;;;;;;26.10;42.70;;;;;;5041307;28;19912;-86
2022/09/08 12:53:12;;;;;;;;;;;26.60;40.30;;;;;;5032110;28;20380;-86
2022/09/08 12:56:07;;;;;;;;;;;26.20;41.80;;;;;;5041773;28;19909;-90
2022/09/08 12:58:48;;;;;;;;;;;26.50;39.20;;;;;;5017810;28;19923;-91
2022/09/08 13:01:32;;;;;;;;;;;27.10;39.90;;;;;;5033925;28;19921;-89
2022/09/08 13:04:00;;;;;;;;;;;26.60;38.40;;;;;;5031863;28;20265;-86
2022/09/08 13:06:25;;;;;;;;;;;26.40;39.60;;;;;;5036465;28;19909;-83
2022/09/08 13:08:51;;;;;;;;;;;26.00;37.40;;;;;;5030381;28;19921;-88
2022/09/08 13:11:43;;;;;;;;;;;24.40;44.20;;;;;;5033021;28;19988;-91
2022/09/08 13:14:09;;;;;;;;;;;24.30;44.40;;;;;;5033074;28;20292;-90
2022/09/08 13:17:00;;;;;;;;;;;26.20;40.90;;;;;;5043567;28;19924;-92
2022/09/08 13:19:34;;;;;;;;;;;26.10;40.60;;;;;;5036912;28;19913;-86
2022/09/08 13:22:21;;;;;;;;;;;26.90;39.00;;;;;;5039909;28;20015;-85
2022/09/08 13:24:59;;;;;;;;;;;25.10;37.20;;;;;;5042592;28;19943;-85
2022/09/08 13:28:02;;;;;;;;;;;26.50;37.90;;;;;;5040868;28;19909;-85
2022/09/08 13:30:36;;;;;;;;;;;26.90;35.10;;;;;;5011538;28;20424;-86
2022/09/08 13:33:10;;;;;;;;;;;26.50;34.60;;;;;;5014996;28;19919;-86
2022/09/08 13:35:54;;;;;;;;;;;26.60;32.80;;;;;;5029803;28;20288;-85
2022/09/08 13:38:20;;;;;;;;;;;27.20;33.00;;;;;;5044951;28;19951;-85
2022/09/08 13:41:00;;;;;;;;;;;26.80;31.50;;;;;;5043160;28;19955;-84
2022/09/08 13:43:35;;;;;;;;;;;28.50;34.40;;;;;;5051626;28;20364;-85
2022/09/08 13:46:24;;;;;;;;;;;27.80;33.00;;;;;;5038604;28;19959;-84
2022/09/08 13:49:02;;;;;;;;;;;28.10;30.20;;;;;;5023563;28;20280;-86
2022/09/08 13:51:46;;;;;;;;;;;28.10;31.70;;;;;;5039705;28;19912;-84
2022/09/08 13:54:47;;;;;;;;;;;28.30;30.00;;;;;;5047350;28;19913;-85
2022/09/08 13:57:31;;;;;;;;;;;28.10;30.00;;;;;;5004576;28;19909;-85
2022/09/08 14:00:13;;;;;;;;;;;28.40;31.40;;;;;;5050321;28;19915;-83
2022/09/08 14:02:51;;;;;;;;;;;27.70;29.30;;;;;;5068027;28;19909;-84
2022/09/08 14:05:22;;;;;;;;;;;27.90;31.20;;;;;;5041191;28;20079;-85
2022/09/08 14:07:57;;;;;;;;;;;27.30;31.20;;;;;;5050477;28;19920;-83
2022/09/08 14:10:28;;;;;;;;;;;26.70;31.80;;;;;;5045092;28;19913;-78
2022/09/08 14:13:23;;;;;;;;;;;25.30;35.00;;;;;;5041035;28;19912;-77
2022/09/08 14:15:52;;;;;;;;;;;27.20;34.80;;;;;;5030096;28;19917;-77
2022/09/08 14:18:32;;;;;;;;;;;28.40;29.00;;;;;;5047604;28;20288;-78
2022/09/08 14:20:59;;;;;;;;;;;26.20;31.40;;;;;;5049469;28;19919;-78
2022/09/08 14:23:34;;;;;;;;;;;26.30;37.60;;;;;;5041108;28;20009;-78
2022/09/08 14:26:18;;;;;;;;;;;29.30;32.50;;;;;;5043167;28;19955;-78
2022/09/08 14:28:47;;;;;;;;;;;28.30;30.60;;;;;;5040770;28;19991;-77
2022/09/08 14:31:27;;;;;;;;;;;27.90;32.90;;;;;;5038373;28;19916;-78
2022/09/08 14:33:59;;;;;;;;;;;26.90;31.60;;;;;;5051296;28;19999;-78
2022/09/08 14:36:43;;;;;;;;;;;27.20;35.70;;;;;;5050172;28;19912;-79
2022/09/08 14:39:27;;;;;;;;;;;28.60;31.10;;;;;;5048211;28;19924;-77
2022/09/08 14:41:55;;;;;;;;;;;29.70;29.30;;;;;;5049149;28;20334;-77
2022/09/08 14:44:33;;;;;;;;;;;30.30;31.60;;;;;;5048609;28;20393;-77
2022/09/08 14:47:08;;;;;;;;;;;29.00;28.30;;;;;;5048009;28;19917;-77
2022/09/08 14:49:52;;;;;;;;;;;29.70;27.00;;;;;;5049211;28;19971;-78